sensor_id;sensor_type;location;lat;lon;timestamp;temperature;humidity
71291;DHT22;59073;51.994;4.448;2023-08-12T00:00:48;21.15;82.61
71291;DHT22;59073;51.994;4.448;2023-08-12T00:03:15;21.19;82.64
71291;DHT22;59073;51.994;4.448;2023-08-12T00:05:40;21.15;82.63
71291;DHT22;59073;51.994;4.448;2023-08-12T00:08:06;21.15;83.01
71291;DHT22;59073;51.994;4.448;2023-08-12T00:10:31;21.26;82.49
71291;DHT22;59073;51.994;4.448;2023-08-12T00:12:57;21.28;82.42
71291;DHT22;59073;51.994;4.448;2023-08-12T00:15:22;21.24;82.67
71291;DHT22;59073;51.994;4.448;2023-08-12T00:17:48;21.30;82.48
71291;DHT22;59073;51.994;4.448;2023-08-12T00:20:13;21.28;82.69
71291;DHT22;59073;51.994;4.448;2023-08-12T00:22:39;21.24;82.45
71291;DHT22;59073;51.994;4.448;2023-08-12T00:25:06;21.28;82.33
71291;DHT22;59073;51.994;4.448;2023-08-12T00:27:31;21.24;82.31
71291;DHT22;59073;51.994;4.448;2023-08-12T00:29:57;21.24;82.46
71291;DHT22;59073;51.994;4.448;2023-08-12T00:32:22;21.19;82.60
71291;DHT22;59073;51.994;4.448;2023-08-12T00:34:48;21.17;82.64
71291;DHT22;59073;51.994;4.448;2023-08-12T00:37:13;21.20;82.56
71291;DHT22;59073;51.994;4.448;2023-08-12T00:39:38;21.20;82.51
71291;DHT22;59073;51.994;4.448;2023-08-12T00:42:04;21.21;82.73
71291;DHT22;59073;51.994;4.448;2023-08-12T00:44:29;21.10;82.98
71291;DHT22;59073;51.994;4.448;2023-08-12T00:46:55;21.19;82.86
71291;DHT22;59073;51.994;4.448;2023-08-12T00:49:22;21.28;82.77
71291;DHT22;59073;51.994;4.448;2023-08-12T00:51:50;21.34;82.44
71291;DHT22;59073;51.994;4.448;2023-08-12T00:54:16;21.37;82.31
71291;DHT22;59073;51.994;4.448;2023-08-12T00:56:43;21.42;81.88
71291;DHT22;59073;51.994;4.448;2023-08-12T00:59:09;21.44;81.91
71291;DHT22;59073;51.994;4.448;2023-08-12T01:01:40;21.47;81.71
71291;DHT22;59073;51.994;4.448;2023-08-12T01:04:07;21.48;81.53
71291;DHT22;59073;51.994;4.448;2023-08-12T01:06:32;21.50;81.68
71291;DHT22;59073;51.994;4.448;2023-08-12T01:08:59;21.51;81.62
71291;DHT22;59073;51.994;4.448;2023-08-12T01:14:23;21.54;81.66
71291;DHT22;59073;51.994;4.448;2023-08-12T01:16:53;21.54;81.77
71291;DHT22;59073;51.994;4.448;2023-08-12T01:19:30;21.54;81.82
71291;DHT22;59073;51.994;4.448;2023-08-12T01:22:00;21.51;81.61
71291;DHT22;59073;51.994;4.448;2023-08-12T01:24:27;21.42;82.02
71291;DHT22;59073;51.994;4.448;2023-08-12T01:26:58;21.37;82.13
71291;DHT22;59073;51.994;4.448;2023-08-12T01:29:24;21.40;82.32
71291;DHT22;59073;51.994;4.448;2023-08-12T01:32:16;21.41;82.23
71291;DHT22;59073;51.994;4.448;2023-08-12T01:34:53;21.45;82.34
71291;DHT22;59073;51.994;4.448;2023-08-12T01:37:28;21.44;82.45
71291;DHT22;59073;51.994;4.448;2023-08-12T01:39:56;21.48;82.33
71291;DHT22;59073;51.994;4.448;2023-08-12T01:42:25;21.52;82.24
71291;DHT22;59073;51.994;4.448;2023-08-12T01:44:51;21.57;82.36
71291;DHT22;59073;51.994;4.448;2023-08-12T01:47:17;21.52;82.24
71291;DHT22;59073;51.994;4.448;2023-08-12T01:49:42;21.58;82.39
71291;DHT22;59073;51.994;4.448;2023-08-12T01:52:07;21.68;82.23
71291;DHT22;59073;51.994;4.448;2023-08-12T01:54:33;21.77;81.77
71291;DHT22;59073;51.994;4.448;2023-08-12T01:57:04;21.83;81.59
71291;DHT22;59073;51.994;4.448;2023-08-12T01:59:38;21.86;81.39
71291;DHT22;59073;51.994;4.448;2023-08-12T02:02:03;21.86;81.51
71291;DHT22;59073;51.994;4.448;2023-08-12T02:04:29;21.82;81.46
71291;DHT22;59073;51.994;4.448;2023-08-12T02:06:55;21.69;81.61
71291;DHT22;59073;51.994;4.448;2023-08-12T02:09:21;21.75;81.65
71291;DHT22;59073;51.994;4.448;2023-08-12T02:11:47;21.64;81.97
71291;DHT22;59073;51.994;4.448;2023-08-12T02:14:13;21.64;82.21
71291;DHT22;59073;51.994;4.448;2023-08-12T02:16:38;21.72;82.07
71291;DHT22;59073;51.994;4.448;2023-08-12T02:19:04;21.81;81.64
71291;DHT22;59073;51.994;4.448;2023-08-12T02:21:29;21.85;81.57
71291;DHT22;59073;51.994;4.448;2023-08-12T02:23:55;21.92;81.36
71291;DHT22;59073;51.994;4.448;2023-08-12T02:26:20;22.01;81.26
71291;DHT22;59073;51.994;4.448;2023-08-12T02:28:45;21.98;81.61
71291;DHT22;59073;51.994;4.448;2023-08-12T02:31:11;21.74;82.04
71291;DHT22;59073;51.994;4.448;2023-08-12T02:33:36;21.64;82.70
71291;DHT22;59073;51.994;4.448;2023-08-12T02:36:02;21.68;82.72
71291;DHT22;59073;51.994;4.448;2023-08-12T02:38:27;21.68;82.89
71291;DHT22;59073;51.994;4.448;2023-08-12T02:40:53;21.65;83.04
71291;DHT22;59073;51.994;4.448;2023-08-12T02:43:18;21.66;83.13
71291;DHT22;59073;51.994;4.448;2023-08-12T02:45:44;21.66;83.50
71291;DHT22;59073;51.994;4.448;2023-08-12T02:48:10;21.68;83.46
71291;DHT22;59073;51.994;4.448;2023-08-12T02:50:36;21.66;83.39
71291;DHT22;59073;51.994;4.448;2023-08-12T02:53:02;21.72;83.44
71291;DHT22;59073;51.994;4.448;2023-08-12T02:55:28;21.74;83.34
71291;DHT22;59073;51.994;4.448;2023-08-12T02:57:53;21.71;83.40
71291;DHT22;59073;51.994;4.448;2023-08-12T03:00:19;21.62;83.63
71291;DHT22;59073;51.994;4.448;2023-08-12T03:02:44;21.62;83.76
71291;DHT22;59073;51.994;4.448;2023-08-12T03:05:09;21.54;84.03
71291;DHT22;59073;51.994;4.448;2023-08-12T03:07:35;21.45;84.16
71291;DHT22;59073;51.994;4.448;2023-08-12T03:10:00;21.45;84.44
71291;DHT22;59073;51.994;4.448;2023-08-12T03:12:26;21.47;84.38
71291;DHT22;59073;51.994;4.448;2023-08-12T03:14:51;21.40;84.27
71291;DHT22;59073;51.994;4.448;2023-08-12T03:17:17;21.45;84.10
71291;DHT22;59073;51.994;4.448;2023-08-12T03:19:42;21.47;83.86
71291;DHT22;59073;51.994;4.448;2023-08-12T03:22:08;21.47;83.86
71291;DHT22;59073;51.994;4.448;2023-08-12T03:24:33;21.50;83.79
71291;DHT22;59073;51.994;4.448;2023-08-12T03:26:59;21.52;83.74
71291;DHT22;59073;51.994;4.448;2023-08-12T03:29:24;21.57;83.52
71291;DHT22;59073;51.994;4.448;2023-08-12T03:31:50;21.59;83.18
71291;DHT22;59073;51.994;4.448;2023-08-12T03:34:15;21.55;83.17
71291;DHT22;59073;51.994;4.448;2023-08-12T03:36:41;21.52;83.20
71291;DHT22;59073;51.994;4.448;2023-08-12T03:39:06;21.45;83.42
71291;DHT22;59073;51.994;4.448;2023-08-12T03:41:32;21.38;83.76
71291;DHT22;59073;51.994;4.448;2023-08-12T03:43:57;21.35;84.13
71291;DHT22;59073;51.994;4.448;2023-08-12T03:46:23;21.34;84.19
71291;DHT22;59073;51.994;4.448;2023-08-12T03:48:48;21.38;84.21
71291;DHT22;59073;51.994;4.448;2023-08-12T03:51:13;21.41;84.28
71291;DHT22;59073;51.994;4.448;2023-08-12T03:53:39;21.47;84.15
71291;DHT22;59073;51.994;4.448;2023-08-12T03:56:04;21.48;84.05
71291;DHT22;59073;51.994;4.448;2023-08-12T03:58:30;21.48;84.14
71291;DHT22;59073;51.994;4.448;2023-08-12T04:00:55;21.35;84.54
71291;DHT22;59073;51.994;4.448;2023-08-12T04:03:21;21.15;85.36
71291;DHT22;59073;51.994;4.448;2023-08-12T04:05:47;21.08;85.92
71291;DHT22;59073;51.994;4.448;2023-08-12T04:08:13;21.11;86.05
71291;DHT22;59073;51.994;4.448;2023-08-12T04:10:39;21.11;86.04
71291;DHT22;59073;51.994;4.448;2023-08-12T04:13:04;21.03;86.36
71291;DHT22;59073;51.994;4.448;2023-08-12T04:15:30;21.17;86.06
71291;DHT22;59073;51.994;4.448;2023-08-12T04:17:55;21.07;86.14
71291;DHT22;59073;51.994;4.448;2023-08-12T04:20:21;21.15;85.94
71291;DHT22;59073;51.994;4.448;2023-08-12T04:22:47;21.17;86.09
71291;DHT22;59073;51.994;4.448;2023-08-12T04:25:14;21.26;85.76
71291;DHT22;59073;51.994;4.448;2023-08-12T04:27:39;21.28;85.52
71291;DHT22;59073;51.994;4.448;2023-08-12T04:30:05;21.30;85.69
71291;DHT22;59073;51.994;4.448;2023-08-12T04:32:31;21.34;85.65
71291;DHT22;59073;51.994;4.448;2023-08-12T04:34:56;21.31;85.70
71291;DHT22;59073;51.994;4.448;2023-08-12T04:37:21;21.40;85.83
71291;DHT22;59073;51.994;4.448;2023-08-12T04:39:49;21.48;85.62
71291;DHT22;59073;51.994;4.448;2023-08-12T04:42:15;21.55;85.32
71291;DHT22;59073;51.994;4.448;2023-08-12T04:44:41;21.61;85.31
71291;DHT22;59073;51.994;4.448;2023-08-12T04:47:06;21.57;84.89
71291;DHT22;59073;51.994;4.448;2023-08-12T04:49:32;21.48;85.13
71291;DHT22;59073;51.994;4.448;2023-08-12T04:51:57;21.54;85.33
71291;DHT22;59073;51.994;4.448;2023-08-12T04:54:23;21.62;85.07
71291;DHT22;59073;51.994;4.448;2023-08-12T04:56:49;21.74;84.92
71291;DHT22;59073;51.994;4.448;2023-08-12T04:59:14;21.82;84.58
71291;DHT22;59073;51.994;4.448;2023-08-12T05:01:40;21.85;84.37
71291;DHT22;59073;51.994;4.448;2023-08-12T05:04:05;21.88;84.42
71291;DHT22;59073;51.994;4.448;2023-08-12T05:06:31;21.85;84.11
71291;DHT22;59073;51.994;4.448;2023-08-12T05:08:56;21.88;84.32
71291;DHT22;59073;51.994;4.448;2023-08-12T05:11:22;21.81;84.25
71291;DHT22;59073;51.994;4.448;2023-08-12T05:13:47;21.74;84.61
71291;DHT22;59073;51.994;4.448;2023-08-12T05:16:12;21.66;84.98
71291;DHT22;59073;51.994;4.448;2023-08-12T05:18:38;21.44;85.66
71291;DHT22;59073;51.994;4.448;2023-08-12T05:21:03;21.28;86.30
71291;DHT22;59073;51.994;4.448;2023-08-12T05:23:28;21.28;86.46
71291;DHT22;59073;51.994;4.448;2023-08-12T05:25:54;21.26;86.55
71291;DHT22;59073;51.994;4.448;2023-08-12T05:28:19;21.26;86.74
71291;DHT22;59073;51.994;4.448;2023-08-12T05:30:45;21.30;86.74
71291;DHT22;59073;51.994;4.448;2023-08-12T05:33:10;21.24;86.58
71291;DHT22;59073;51.994;4.448;2023-08-12T05:35:35;21.23;86.76
71291;DHT22;59073;51.994;4.448;2023-08-12T05:38:01;21.24;86.90
71291;DHT22;59073;51.994;4.448;2023-08-12T05:40:27;21.21;86.85
71291;DHT22;59073;51.994;4.448;2023-08-12T05:42:53;21.10;87.13
71291;DHT22;59073;51.994;4.448;2023-08-12T05:45:18;20.93;87.66
71291;DHT22;59073;51.994;4.448;2023-08-12T05:47:44;20.92;88.12
71291;DHT22;59073;51.994;4.448;2023-08-12T05:50:09;21.00;88.08
71291;DHT22;59073;51.994;4.448;2023-08-12T05:52:35;21.06;87.90
71291;DHT22;59073;51.994;4.448;2023-08-12T05:55:00;21.13;87.53
71291;DHT22;59073;51.994;4.448;2023-08-12T05:57:26;21.19;87.43
71291;DHT22;59073;51.994;4.448;2023-08-12T05:59:51;21.30;87.35
71291;DHT22;59073;51.994;4.448;2023-08-12T06:02:17;21.34;87.06
71291;DHT22;59073;51.994;4.448;2023-08-12T06:04:43;21.37;86.81
71291;DHT22;59073;51.994;4.448;2023-08-12T06:07:08;21.37;86.59
71291;DHT22;59073;51.994;4.448;2023-08-12T06:09:33;21.45;86.69
71291;DHT22;59073;51.994;4.448;2023-08-12T06:11:59;21.50;86.52
71291;DHT22;59073;51.994;4.448;2023-08-12T06:14:24;21.54;86.65
71291;DHT22;59073;51.994;4.448;2023-08-12T06:16:49;21.54;86.41
71291;DHT22;59073;51.994;4.448;2023-08-12T06:19:15;21.48;86.50
71291;DHT22;59073;51.994;4.448;2023-08-12T06:21:40;21.52;86.35
71291;DHT22;59073;51.994;4.448;2023-08-12T06:24:06;21.50;86.27
71291;DHT22;59073;51.994;4.448;2023-08-12T06:26:31;21.54;86.44
71291;DHT22;59073;51.994;4.448;2023-08-12T06:28:57;21.66;86.34
71291;DHT22;59073;51.994;4.448;2023-08-12T06:31:23;21.75;86.10
71291;DHT22;59073;51.994;4.448;2023-08-12T06:33:48;21.83;86.06
71291;DHT22;59073;51.994;4.448;2023-08-12T06:36:14;21.81;85.75
71291;DHT22;59073;51.994;4.448;2023-08-12T06:38:39;21.85;85.62
71291;DHT22;59073;51.994;4.448;2023-08-12T06:41:04;21.88;85.49
71291;DHT22;59073;51.994;4.448;2023-08-12T06:43:30;21.93;85.41
71291;DHT22;59073;51.994;4.448;2023-08-12T06:45:55;21.89;85.22
71291;DHT22;59073;51.994;4.448;2023-08-12T06:48:21;21.82;85.51
71291;DHT22;59073;51.994;4.448;2023-08-12T06:50:53;21.78;85.72
71291;DHT22;59073;51.994;4.448;2023-08-12T06:53:18;21.79;85.67
71291;DHT22;59073;51.994;4.448;2023-08-12T06:55:44;21.75;85.70
71291;DHT22;59073;51.994;4.448;2023-08-12T06:58:10;21.72;85.84
71291;DHT22;59073;51.994;4.448;2023-08-12T07:00:36;21.86;85.80
71291;DHT22;59073;51.994;4.448;2023-08-12T07:03:01;21.92;85.29
71291;DHT22;59073;51.994;4.448;2023-08-12T07:05:27;21.28;82.91
71291;DHT22;59073;51.994;4.448;2023-08-12T07:07:52;20.59;84.49
71291;DHT22;59073;51.994;4.448;2023-08-12T07:10:18;20.14;84.41
71291;DHT22;59073;51.994;4.448;2023-08-12T07:12:43;19.77;85.29
71291;DHT22;59073;51.994;4.448;2023-08-12T07:15:09;19.40;85.20
71291;DHT22;59073;51.994;4.448;2023-08-12T07:17:36;19.15;85.57
71291;DHT22;59073;51.994;4.448;2023-08-12T07:20:01;19.01;85.07
71291;DHT22;59073;51.994;4.448;2023-08-12T07:22:27;18.82;84.73
71291;DHT22;59073;51.994;4.448;2023-08-12T07:24:53;18.82;85.48
71291;DHT22;59073;51.994;4.448;2023-08-12T07:27:19;18.78;85.20
71291;DHT22;59073;51.994;4.448;2023-08-12T07:29:45;18.85;85.31
71291;DHT22;59073;51.994;4.448;2023-08-12T07:32:11;19.03;86.04
71291;DHT22;59073;51.994;4.448;2023-08-12T07:34:37;19.18;85.66
71291;DHT22;59073;51.994;4.448;2023-08-12T07:37:03;19.26;85.65
71291;DHT22;59073;51.994;4.448;2023-08-12T07:39:28;19.32;85.49
71291;DHT22;59073;51.994;4.448;2023-08-12T07:41:53;19.40;85.27
71291;DHT22;59073;51.994;4.448;2023-08-12T07:44:19;19.37;85.47
71291;DHT22;59073;51.994;4.448;2023-08-12T07:46:44;19.39;85.63
71291;DHT22;59073;51.994;4.448;2023-08-12T07:49:09;19.40;85.66
71291;DHT22;59073;51.994;4.448;2023-08-12T07:51:35;19.43;85.84
71291;DHT22;59073;51.994;4.448;2023-08-12T07:54:00;19.50;85.75
71291;DHT22;59073;51.994;4.448;2023-08-12T07:56:26;19.50;85.73
71291;DHT22;59073;51.994;4.448;2023-08-12T07:58:51;19.50;85.49
71291;DHT22;59073;51.994;4.448;2023-08-12T08:01:17;19.50;85.47
71291;DHT22;59073;51.994;4.448;2023-08-12T08:03:42;19.56;85.41
71291;DHT22;59073;51.994;4.448;2023-08-12T08:06:08;19.71;85.52
71291;DHT22;59073;51.994;4.448;2023-08-12T08:08:33;19.90;84.92
71291;DHT22;59073;51.994;4.448;2023-08-12T08:10:58;20.05;85.05
71291;DHT22;59073;51.994;4.448;2023-08-12T08:13:24;20.32;84.77
71291;DHT22;59073;51.994;4.448;2023-08-12T08:15:49;20.66;84.09
71291;DHT22;59073;51.994;4.448;2023-08-12T08:18:15;20.93;83.27
71291;DHT22;59073;51.994;4.448;2023-08-12T08:20:42;21.23;82.20
71291;DHT22;59073;51.994;4.448;2023-08-12T08:23:07;21.35;81.57
71291;DHT22;59073;51.994;4.448;2023-08-12T08:25:33;21.54;80.75
71291;DHT22;59073;51.994;4.448;2023-08-12T08:27:58;21.72;80.11
71291;DHT22;59073;51.994;4.448;2023-08-12T08:30:23;21.91;80.14
71291;DHT22;59073;51.994;4.448;2023-08-12T08:32:51;22.03;79.53
71291;DHT22;59073;51.994;4.448;2023-08-12T08:35:16;22.10;79.27
71291;DHT22;59073;51.994;4.448;2023-08-12T08:37:41;22.29;78.33
71291;DHT22;59073;51.994;4.448;2023-08-12T08:40:08;22.57;78.13
71291;DHT22;59073;51.994;4.448;2023-08-12T08:42:34;22.88;77.36
71291;DHT22;59073;51.994;4.448;2023-08-12T08:45:01;22.92;77.30
71291;DHT22;59073;51.994;4.448;2023-08-12T08:47:27;23.11;77.11
71291;DHT22;59073;51.994;4.448;2023-08-12T08:49:56;23.43;76.55
71291;DHT22;59073;51.994;4.448;2023-08-12T08:52:26;24.01;77.57
71291;DHT22;59073;51.994;4.448;2023-08-12T08:54:52;24.72;76.25
71291;DHT22;59073;51.994;4.448;2023-08-12T08:57:19;25.05;74.65
71291;DHT22;59073;51.994;4.448;2023-08-12T08:59:45;24.76;73.96
71291;DHT22;59073;51.994;4.448;2023-08-12T09:02:16;24.73;74.87
71291;DHT22;59073;51.994;4.448;2023-08-12T09:04:46;24.58;73.79
71291;DHT22;59073;51.994;4.448;2023-08-12T09:07:13;24.98;72.68
71291;DHT22;59073;51.994;4.448;2023-08-12T09:09:45;25.39;72.68
71291;DHT22;59073;51.994;4.448;2023-08-12T09:12:14;25.43;71.26
71291;DHT22;59073;51.994;4.448;2023-08-12T09:14:41;25.22;71.61
71291;DHT22;59073;51.994;4.448;2023-08-12T09:17:07;24.92;70.27
71291;DHT22;59073;51.994;4.448;2023-08-12T09:19:32;24.37;71.07
71291;DHT22;59073;51.994;4.448;2023-08-12T09:21:58;23.93;72.04
71291;DHT22;59073;51.994;4.448;2023-08-12T09:24:27;24.06;72.33
71291;DHT22;59073;51.994;4.448;2023-08-12T09:26:55;24.11;69.05
71291;DHT22;59073;51.994;4.448;2023-08-12T09:29:32;24.06;67.19
71291;DHT22;59073;51.994;4.448;2023-08-12T09:32:18;24.42;67.40
71291;DHT22;59073;51.994;4.448;2023-08-12T09:34:52;24.54;69.28
71291;DHT22;59073;51.994;4.448;2023-08-12T09:37:23;24.57;67.91
71291;DHT22;59073;51.994;4.448;2023-08-12T09:39:50;24.57;70.17
71291;DHT22;59073;51.994;4.448;2023-08-12T09:42:17;24.31;70.29
71291;DHT22;59073;51.994;4.448;2023-08-12T09:44:43;24.00;71.76
71291;DHT22;59073;51.994;4.448;2023-08-12T09:47:09;23.94;71.14
71291;DHT22;59073;51.994;4.448;2023-08-12T09:49:35;23.55;69.61
71291;DHT22;59073;51.994;4.448;2023-08-12T09:52:03;23.28;72.65
71291;DHT22;59073;51.994;4.448;2023-08-12T09:54:31;23.26;72.61
71291;DHT22;59073;51.994;4.448;2023-08-12T09:57:04;23.61;73.83
71291;DHT22;59073;51.994;4.448;2023-08-12T09:59:35;23.99;72.69
71291;DHT22;59073;51.994;4.448;2023-08-12T10:02:02;24.32;71.07
71291;DHT22;59073;51.994;4.448;2023-08-12T10:04:39;24.28;72.05
71291;DHT22;59073;51.994;4.448;2023-08-12T10:07:07;23.92;71.07
71291;DHT22;59073;51.994;4.448;2023-08-12T10:09:36;24.16;71.82
71291;DHT22;59073;51.994;4.448;2023-08-12T10:12:03;24.34;70.86
71291;DHT22;59073;51.994;4.448;2023-08-12T10:14:29;24.11;72.52
71291;DHT22;59073;51.994;4.448;2023-08-12T10:16:56;24.42;70.05
71291;DHT22;59073;51.994;4.448;2023-08-12T10:19:22;24.47;70.31
71291;DHT22;59073;51.994;4.448;2023-08-12T10:21:55;23.90;70.84
71291;DHT22;59073;51.994;4.448;2023-08-12T10:24:23;23.76;70.56
71291;DHT22;59073;51.994;4.448;2023-08-12T10:26:50;24.25;70.52
71291;DHT22;59073;51.994;4.448;2023-08-12T10:29:16;24.76;69.79
71291;DHT22;59073;51.994;4.448;2023-08-12T10:31:41;25.01;70.27
71291;DHT22;59073;51.994;4.448;2023-08-12T10:34:18;24.83;67.61
71291;DHT22;59073;51.994;4.448;2023-08-12T10:36:44;24.65;68.62
71291;DHT22;59073;51.994;4.448;2023-08-12T10:39:09;24.14;68.90
71291;DHT22;59073;51.994;4.448;2023-08-12T10:41:35;24.37;70.23
71291;DHT22;59073;51.994;4.448;2023-08-12T10:44:05;24.52;69.03
71291;DHT22;59073;51.994;4.448;2023-08-12T10:46:35;24.47;67.49
71291;DHT22;59073;51.994;4.448;2023-08-12T10:49:08;24.65;68.54
71291;DHT22;59073;51.994;4.448;2023-08-12T10:54:26;24.88;68.42
71291;DHT22;59073;51.994;4.448;2023-08-12T10:59:56;24.73;70.30
71291;DHT22;59073;51.994;4.448;2023-08-12T11:05:01;24.92;66.88
71291;DHT22;59073;51.994;4.448;2023-08-12T11:08:01;24.96;69.11
71291;DHT22;59073;51.994;4.448;2023-08-12T11:10:35;25.09;66.69
71291;DHT22;59073;51.994;4.448;2023-08-12T11:13:01;25.12;68.31
71291;DHT22;59073;51.994;4.448;2023-08-12T11:15:33;25.09;67.02
71291;DHT22;59073;51.994;4.448;2023-08-12T11:18:02;24.88;66.29
71291;DHT22;59073;51.994;4.448;2023-08-12T11:20:28;24.81;66.74
71291;DHT22;59073;51.994;4.448;2023-08-12T11:22:57;24.62;67.41
71291;DHT22;59073;51.994;4.448;2023-08-12T11:25:24;24.60;67.96
71291;DHT22;59073;51.994;4.448;2023-08-12T11:27:50;24.82;67.91
71291;DHT22;59073;51.994;4.448;2023-08-12T11:30:17;24.72;67.77
71291;DHT22;59073;51.994;4.448;2023-08-12T11:32:44;24.82;69.55
71291;DHT22;59073;51.994;4.448;2023-08-12T11:35:12;24.92;67.42
71291;DHT22;59073;51.994;4.448;2023-08-12T11:37:39;24.82;65.42
71291;DHT22;59073;51.994;4.448;2023-08-12T11:40:07;24.75;68.04
71291;DHT22;59073;51.994;4.448;2023-08-12T11:42:35;24.76;66.99
71291;DHT22;59073;51.994;4.448;2023-08-12T11:45:01;25.05;68.19
71291;DHT22;59073;51.994;4.448;2023-08-12T11:47:27;25.18;65.06
71291;DHT22;59073;51.994;4.448;2023-08-12T11:49:53;24.91;65.12
71291;DHT22;59073;51.994;4.448;2023-08-12T11:52:19;24.42;65.41
71291;DHT22;59073;51.994;4.448;2023-08-12T11:54:45;24.35;67.51
71291;DHT22;59073;51.994;4.448;2023-08-12T11:57:11;24.61;66.79
71291;DHT22;59073;51.994;4.448;2023-08-12T11:59:37;24.72;67.18
71291;DHT22;59073;51.994;4.448;2023-08-12T12:02:04;24.88;66.16
71291;DHT22;59073;51.994;4.448;2023-08-12T12:04:32;24.85;65.87
71291;DHT22;59073;51.994;4.448;2023-08-12T12:06:58;24.89;66.87
71291;DHT22;59073;51.994;4.448;2023-08-12T12:09:25;24.82;67.45
71291;DHT22;59073;51.994;4.448;2023-08-12T12:11:55;24.91;67.95
71291;DHT22;59073;51.994;4.448;2023-08-12T12:14:21;25.05;66.22
71291;DHT22;59073;51.994;4.448;2023-08-12T12:16:48;25.09;65.95
71291;DHT22;59073;51.994;4.448;2023-08-12T12:19:22;25.02;67.03
71291;DHT22;59073;51.994;4.448;2023-08-12T12:21:52;24.81;66.32
71291;DHT22;59073;51.994;4.448;2023-08-12T12:24:19;24.82;66.82
71291;DHT22;59073;51.994;4.448;2023-08-12T12:26:46;24.72;68.49
71291;DHT22;59073;51.994;4.448;2023-08-12T12:29:12;24.76;67.55
71291;DHT22;59073;51.994;4.448;2023-08-12T12:31:40;24.52;68.25
71291;DHT22;59073;51.994;4.448;2023-08-12T12:34:07;24.41;66.51
71291;DHT22;59073;51.994;4.448;2023-08-12T12:36:36;24.28;67.46
71291;DHT22;59073;51.994;4.448;2023-08-12T12:39:03;24.34;68.52
71291;DHT22;59073;51.994;4.448;2023-08-12T12:41:30;24.35;69.33
71291;DHT22;59073;51.994;4.448;2023-08-12T12:43:56;24.48;68.10
71291;DHT22;59073;51.994;4.448;2023-08-12T12:46:21;24.54;67.41
71291;DHT22;59073;51.994;4.448;2023-08-12T12:48:47;24.41;66.96
71291;DHT22;59073;51.994;4.448;2023-08-12T12:51:13;24.09;68.05
71291;DHT22;59073;51.994;4.448;2023-08-12T12:53:38;24.14;67.03
71291;DHT22;59073;51.994;4.448;2023-08-12T12:56:05;23.92;66.13
71291;DHT22;59073;51.994;4.448;2023-08-12T12:58:31;23.92;67.04
71291;DHT22;59073;51.994;4.448;2023-08-12T13:00:57;23.83;67.30
71291;DHT22;59073;51.994;4.448;2023-08-12T13:03:22;23.67;68.67
71291;DHT22;59073;51.994;4.448;2023-08-12T13:05:49;23.86;69.56
71291;DHT22;59073;51.994;4.448;2023-08-12T13:08:15;23.92;66.98
71291;DHT22;59073;51.994;4.448;2023-08-12T13:10:41;23.76;67.60
71291;DHT22;59073;51.994;4.448;2023-08-12T13:13:06;23.69;68.67
71291;DHT22;59073;51.994;4.448;2023-08-12T13:15:31;23.76;66.81
71291;DHT22;59073;51.994;4.448;2023-08-12T13:17:57;23.83;67.85
71291;DHT22;59073;51.994;4.448;2023-08-12T13:20:22;23.82;66.18
71291;DHT22;59073;51.994;4.448;2023-08-12T13:22:48;23.83;65.06
71291;DHT22;59073;51.994;4.448;2023-08-12T13:25:13;23.70;66.82
71291;DHT22;59073;51.994;4.448;2023-08-12T13:27:38;23.73;65.62
71291;DHT22;59073;51.994;4.448;2023-08-12T13:30:05;23.70;66.32
71291;DHT22;59073;51.994;4.448;2023-08-12T13:32:30;23.72;64.77
71291;DHT22;59073;51.994;4.448;2023-08-12T13:34:56;23.69;67.72
71291;DHT22;59073;51.994;4.448;2023-08-12T13:37:21;23.63;66.25
71291;DHT22;59073;51.994;4.448;2023-08-12T13:39:47;23.66;66.98
71291;DHT22;59073;51.994;4.448;2023-08-12T13:42:12;23.74;66.26
71291;DHT22;59073;51.994;4.448;2023-08-12T13:44:38;23.53;66.53
71291;DHT22;59073;51.994;4.448;2023-08-12T13:47:03;23.42;67.56
71291;DHT22;59073;51.994;4.448;2023-08-12T13:49:29;23.45;68.43
71291;DHT22;59073;51.994;4.448;2023-08-12T13:51:54;23.45;68.92
71291;DHT22;59073;51.994;4.448;2023-08-12T13:54:20;23.62;68.71
71291;DHT22;59073;51.994;4.448;2023-08-12T13:56:45;23.67;68.93
71291;DHT22;59073;51.994;4.448;2023-08-12T13:59:11;23.86;68.26
71291;DHT22;59073;51.994;4.448;2023-08-12T14:01:36;23.82;66.52
71291;DHT22;59073;51.994;4.448;2023-08-12T14:04:02;23.77;65.51
71291;DHT22;59073;51.994;4.448;2023-08-12T14:06:28;23.59;64.92
71291;DHT22;59073;51.994;4.448;2023-08-12T14:08:53;23.21;65.76
71291;DHT22;59073;51.994;4.448;2023-08-12T14:11:19;23.07;64.53
71291;DHT22;59073;51.994;4.448;2023-08-12T14:13:46;22.94;64.09
71291;DHT22;59073;51.994;4.448;2023-08-12T14:16:11;23.05;66.12
71291;DHT22;59073;51.994;4.448;2023-08-12T14:18:37;23.11;64.72
71291;DHT22;59073;51.994;4.448;2023-08-12T14:21:03;23.04;65.26
71291;DHT22;59073;51.994;4.448;2023-08-12T14:23:28;22.97;64.46
71291;DHT22;59073;51.994;4.448;2023-08-12T14:25:54;22.88;64.61
71291;DHT22;59073;51.994;4.448;2023-08-12T14:28:19;22.71;64.11
71291;DHT22;59073;51.994;4.448;2023-08-12T14:30:44;22.75;63.62
71291;DHT22;59073;51.994;4.448;2023-08-12T14:33:10;22.81;63.74
71291;DHT22;59073;51.994;4.448;2023-08-12T14:35:35;22.78;62.96
71291;DHT22;59073;51.994;4.448;2023-08-12T14:38:01;22.64;62.98
71291;DHT22;59073;51.994;4.448;2023-08-12T14:40:26;22.63;64.11
71291;DHT22;59073;51.994;4.448;2023-08-12T14:42:52;22.81;63.92
71291;DHT22;59073;51.994;4.448;2023-08-12T14:45:17;22.75;62.01
71291;DHT22;59073;51.994;4.448;2023-08-12T14:47:43;22.74;62.69
71291;DHT22;59073;51.994;4.448;2023-08-12T14:50:08;22.73;63.94
71291;DHT22;59073;51.994;4.448;2023-08-12T14:52:34;22.64;63.89
71291;DHT22;59073;51.994;4.448;2023-08-12T14:54:59;22.61;63.34
71291;DHT22;59073;51.994;4.448;2023-08-12T14:57:25;22.46;64.28
71291;DHT22;59073;51.994;4.448;2023-08-12T14:59:50;22.50;65.93
71291;DHT22;59073;51.994;4.448;2023-08-12T15:02:17;22.53;63.82
71291;DHT22;59073;51.994;4.448;2023-08-12T15:04:43;22.35;63.77
71291;DHT22;59073;51.994;4.448;2023-08-12T15:07:08;22.40;64.37
71291;DHT22;59073;51.994;4.448;2023-08-12T15:09:34;22.60;62.68
71291;DHT22;59073;51.994;4.448;2023-08-12T15:11:59;22.64;63.82
71291;DHT22;59073;51.994;4.448;2023-08-12T15:14:25;22.65;62.27
71291;DHT22;59073;51.994;4.448;2023-08-12T15:16:51;22.68;64.39
71291;DHT22;59073;51.994;4.448;2023-08-12T15:19:17;22.70;63.75
71291;DHT22;59073;51.994;4.448;2023-08-12T15:21:42;22.77;62.40
71291;DHT22;59073;51.994;4.448;2023-08-12T15:24:07;22.57;64.66
71291;DHT22;59073;51.994;4.448;2023-08-12T15:26:33;22.54;65.20
71291;DHT22;59073;51.994;4.448;2023-08-12T15:28:58;22.51;65.80
71291;DHT22;59073;51.994;4.448;2023-08-12T15:31:24;22.42;65.34
71291;DHT22;59073;51.994;4.448;2023-08-12T15:33:49;22.35;65.23
71291;DHT22;59073;51.994;4.448;2023-08-12T15:36:15;22.40;64.74